Time;durP1;ratioP1;P1;durP2;ratioP2;P2;SDS_P1;SDS_P2;PMS_P1;PMS_P2;Temp;Humidity;BMP_temperature;BMP_pressure;BME280_temperature;BME280_humidity;BME280_pressure;Samples;Min_cycle;Max_cycle;Signal;HPM_P1;HPM_P2
2021/12/20 00:00:18;;;;;;;8.20;2.80;;;2.80;88.40;;;;;;5057849;28;20033;-45
2021/12/20 00:02:47;;;;;;;3.65;2.38;;;2.80;88.90;;;;;;5058029;28;20057;-39
2021/12/20 00:05:14;;;;;;;6.30;2.85;;;2.80;88.40;;;;;;5057963;28;20063;-44
2021/12/20 00:07:40;;;;;;;4.10;2.55;;;2.70;88.40;;;;;;5058029;28;20029;-44
2021/12/20 00:10:06;;;;;;;5.95;3.40;;;2.70;88.60;;;;;;5057766;28;20098;-39
2021/12/20 00:12:32;;;;;;;5.90;2.80;;;2.70;88.70;;;;;;5058046;28;20055;-38
2021/12/20 00:14:58;;;;;;;7.43;3.22;;;2.70;88.90;;;;;;5057761;28;20109;-40
2021/12/20 00:17:25;;;;;;;5.85;2.70;;;2.70;88.90;;;;;;5058110;28;20423;-44
2021/12/20 00:19:50;;;;;;;5.38;2.80;;;2.70;89.00;;;;;;5056548;28;20033;-39
2021/12/20 00:22:16;;;;;;;4.65;2.97;;;2.80;89.00;;;;;;5057542;28;20443;-41
2021/12/20 00:24:42;;;;;;;4.35;2.78;;;2.80;88.90;;;;;;5057456;28;20032;-44
2021/12/20 00:27:09;;;;;;;4.38;2.85;;;2.80;88.80;;;;;;5057687;28;20486;-39
2021/12/20 00:29:36;;;;;;;3.50;2.80;;;2.80;88.70;;;;;;5057157;28;20029;-43
2021/12/20 00:32:02;;;;;;;5.18;3.10;;;2.80;88.70;;;;;;5057483;28;20057;-44
2021/12/20 00:34:27;;;;;;;4.25;2.45;;;2.80;88.60;;;;;;5057164;28;20068;-39
2021/12/20 00:37:02;;;;;;;4.82;3.15;;;2.80;88.50;;;;;;5057518;28;20059;-39
2021/12/20 00:42:11;;;;;;;5.05;3.10;;;2.80;88.60;;;;;;5057304;28;20179;-39
2021/12/20 00:44:37;;;;;;;3.78;2.65;;;2.80;88.50;;;;;;5057153;28;20057;-44
2021/12/20 00:47:03;;;;;;;4.43;2.53;;;2.80;88.30;;;;;;5057450;28;20021;-46
2021/12/20 00:49:30;;;;;;;6.43;2.70;;;2.80;88.10;;;;;;5057095;28;20428;-38
2021/12/20 00:51:55;;;;;;;8.98;3.40;;;2.80;88.00;;;;;;5057160;28;20329;-44
2021/12/20 00:54:21;;;;;;;4.38;3.00;;;2.70;87.80;;;;;;5056412;28;20045;-43
2021/12/20 00:56:48;;;;;;;2.83;2.22;;;2.70;87.80;;;;;;5057307;28;20037;-48
2021/12/20 00:59:15;;;;;;;4.20;2.80;;;2.70;87.80;;;;;;5056777;28;20032;-39
2021/12/20 01:01:40;;;;;;;5.30;3.15;;;2.70;87.60;;;;;;5057027;28;20028;-39
2021/12/20 01:04:06;;;;;;;5.03;3.22;;;2.70;87.50;;;;;;5056748;28;20117;-39
2021/12/20 01:06:32;;;;;;;3.80;2.83;;;2.70;87.60;;;;;;5056852;28;20471;-43
2021/12/20 01:08:58;;;;;;;5.57;3.10;;;2.60;87.40;;;;;;5056345;28;20428;-39
2021/12/20 01:11:26;;;;;;;4.55;3.00;;;2.60;87.50;;;;;;5056566;28;20064;-40
2021/12/20 01:13:53;;;;;;;8.25;3.00;;;2.60;87.40;;;;;;5056168;28;20040;-45
2021/12/20 01:16:29;;;;;;;4.35;2.83;;;2.50;87.30;;;;;;5056851;28;20103;-46
2021/12/20 01:18:55;;;;;;;5.55;2.70;;;2.50;87.30;;;;;;5056046;28;20405;-44
2021/12/20 01:21:20;;;;;;;4.07;2.53;;;2.50;87.30;;;;;;5056478;28;20044;-45
2021/12/20 01:23:46;;;;;;;3.85;2.40;;;2.50;87.40;;;;;;5056532;28;20029;-39
2021/12/20 01:26:11;;;;;;;5.03;2.15;;;2.40;87.40;;;;;;5056216;28;20044;-46
2021/12/20 01:28:39;;;;;;;5.15;2.20;;;2.40;87.30;;;;;;5055983;28;20029;-39
2021/12/20 01:31:05;;;;;;;5.38;2.58;;;2.40;87.40;;;;;;5055460;28;20029;-48
2021/12/20 01:33:30;;;;;;;2.60;2.20;;;2.40;87.40;;;;;;5055802;28;20037;-39
2021/12/20 01:35:58;;;;;;;3.08;2.17;;;2.30;87.30;;;;;;5056198;28;20120;-39
2021/12/20 01:38:24;;;;;;;3.90;2.60;;;2.30;87.40;;;;;;5055991;28;20037;-39
2021/12/20 01:40:50;;;;;;;3.75;2.20;;;2.30;87.50;;;;;;5055736;28;20059;-39
2021/12/20 01:43:17;;;;;;;5.15;2.63;;;2.30;87.50;;;;;;5055906;28;20036;-39
2021/12/20 01:45:43;;;;;;;3.70;2.47;;;2.30;87.60;;;;;;5055814;28;20033;-45
2021/12/20 01:48:12;;;;;;;5.05;3.00;;;2.30;87.70;;;;;;5056145;28;20029;-45
2021/12/20 01:51:00;;;;;;;3.58;2.10;;;2.30;87.60;;;;;;5056141;28;20029;-39
2021/12/20 01:53:26;;;;;;;3.83;2.28;;;2.30;87.60;;;;;;5055932;28;20136;-44
2021/12/20 01:55:54;;;;;;;3.53;2.20;;;2.30;87.60;;;;;;5055850;28;20041;-44
2021/12/20 01:58:20;;;;;;;3.80;2.22;;;2.30;87.50;;;;;;5055906;28;20052;-39
2021/12/20 02:03:32;;;;;;;2.65;2.05;;;2.20;87.50;;;;;;5055499;28;20052;-44
2021/12/20 02:05:59;;;;;;;3.63;2.30;;;2.20;87.40;;;;;;5055947;28;20028;-38
2021/12/20 02:08:28;;;;;;;3.55;2.40;;;2.20;87.30;;;;;;5055831;28;20029;-38
2021/12/20 02:10:57;;;;;;;6.10;2.58;;;2.20;87.30;;;;;;5055270;28;20033;-43
2021/12/20 02:13:24;;;;;;;3.30;2.42;;;2.20;87.40;;;;;;5055660;28;20028;-43
2021/12/20 02:15:51;;;;;;;3.58;2.50;;;2.20;87.50;;;;;;5055370;28;20033;-41
2021/12/20 02:18:17;;;;;;;4.18;2.22;;;2.10;87.70;;;;;;5055507;28;20060;-44
2021/12/20 02:20:43;;;;;;;5.25;2.35;;;2.20;87.90;;;;;;5055516;28;20066;-47
2021/12/20 02:23:09;;;;;;;2.72;2.00;;;2.20;87.80;;;;;;5055567;28;20052;-43
2021/12/20 02:25:36;;;;;;;4.38;1.92;;;2.20;87.90;;;;;;5055697;28;20028;-39
2021/12/20 02:28:11;;;;;;;6.78;2.20;;;2.20;88.20;;;;;;5055581;28;20025;-39
2021/12/20 02:38:49;;;;;;;2.50;1.63;;;2.20;88.20;;;;;;5055212;28;20090;-39
2021/12/20 02:41:21;;;;;;;3.22;1.83;;;2.30;88.20;;;;;;5055506;28;20100;-39
2021/12/20 02:43:56;;;;;;;4.90;2.17;;;2.30;88.20;;;;;;5058158;28;20044;-43
2021/12/20 02:49:06;;;;;;;;;;;2.30;88.10;;;;;;5059410;28;20170;-43
2021/12/20 02:51:32;;;;;;;2.15;1.80;;;2.30;88.00;;;;;;5059099;28;19916;-43
2021/12/20 02:53:59;;;;;;;5.07;2.20;;;2.30;88.10;;;;;;5057699;28;20048;-44
2021/12/20 02:56:25;;;;;;;5.95;2.30;;;2.30;88.10;;;;;;5059394;28;20380;-39
2021/12/20 02:58:52;;;;;;;2.83;2.15;;;2.30;87.90;;;;;;5058795;28;20140;-39
2021/12/20 03:01:19;;;;;;;4.28;2.60;;;2.30;87.60;;;;;;5059371;28;20041;-39
2021/12/20 03:03:45;;;;;;;6.88;2.80;;;2.30;87.70;;;;;;5058782;28;20108;-38
2021/12/20 03:06:14;;;;;;;3.58;2.60;;;2.30;87.60;;;;;;5058955;28;20021;-45
2021/12/20 03:08:44;;;;;;;3.30;2.45;;;2.30;87.50;;;;;;5058944;28;20083;-39
2021/12/20 03:11:11;;;;;;;3.92;2.53;;;2.30;87.30;;;;;;5059109;28;20405;-39
2021/12/20 03:13:37;;;;;;;4.57;2.70;;;2.30;87.30;;;;;;5058427;28;20052;-46
2021/12/20 03:16:03;;;;;;;3.95;3.00;;;2.20;87.30;;;;;;5059134;28;20029;-47
2021/12/20 03:18:28;;;;;;;4.78;3.05;;;2.20;87.40;;;;;;5058542;28;20103;-47
2021/12/20 03:20:54;;;;;;;5.40;3.30;;;2.20;87.40;;;;;;5058770;28;20029;-44
2021/12/20 03:23:21;;;;;;;7.07;3.45;;;2.20;87.50;;;;;;5058459;28;20051;-45
2021/12/20 03:25:46;;;;;;;7.05;4.20;;;2.20;87.60;;;;;;5058732;28;20033;-39
2021/12/20 03:28:12;;;;;;;7.85;3.70;;;2.20;87.80;;;;;;5058294;28;20029;-38
2021/12/20 03:30:38;;;;;;;4.97;3.53;;;2.10;88.00;;;;;;5058784;28;20032;-44
2021/12/20 03:33:03;;;;;;;5.40;3.90;;;2.10;88.20;;;;;;5058619;28;20334;-39
2021/12/20 03:35:29;;;;;;;9.20;3.80;;;2.10;88.30;;;;;;5058513;28;20462;-39
2021/12/20 03:37:55;;;;;;;5.93;3.90;;;2.20;88.40;;;;;;5058816;28;20132;-39
2021/12/20 03:40:20;;;;;;;6.60;4.50;;;2.20;88.60;;;;;;5058348;28;20064;-39
2021/12/20 03:42:46;;;;;;;9.32;4.25;;;2.20;88.50;;;;;;5058137;28;20141;-39
2021/12/20 03:45:14;;;;;;;7.03;4.20;;;2.20;88.60;;;;;;5057817;28;20056;-39
2021/12/20 03:47:41;;;;;;;8.63;4.75;;;2.20;88.50;;;;;;5058531;28;20402;-43
2021/12/20 03:50:09;;;;;;;5.50;3.90;;;2.20;88.50;;;;;;5058044;28;20412;-39
2021/12/20 03:52:38;;;;;;;7.20;4.15;;;2.30;88.40;;;;;;5058165;28;20036;-39
2021/12/20 03:55:13;;;;;;;7.65;4.15;;;2.30;88.50;;;;;;5056634;28;20060;-44
2021/12/20 03:57:39;;;;;;;9.73;4.57;;;2.30;88.50;;;;;;5058248;28;20029;-39
2021/12/20 04:00:09;;;;;;;6.95;4.25;;;2.40;88.50;;;;;;5058132;28;20113;-43
2021/12/20 04:02:41;;;;;;;6.70;4.15;;;2.40;88.30;;;;;;5057759;28;20040;-44
2021/12/20 04:05:08;;;;;;;6.55;4.47;;;2.40;88.20;;;;;;5058129;28;20029;-43
2021/12/20 04:07:34;;;;;;;7.13;4.35;;;2.40;88.10;;;;;;5057878;28;20094;-44
2021/12/20 04:09:59;;;;;;;6.35;4.00;;;2.50;88.10;;;;;;5057684;28;20037;-48
2021/12/20 04:12:25;;;;;;;7.00;4.40;;;2.50;88.00;;;;;;5057616;28;20400;-46
2021/12/20 04:14:51;;;;;;;5.55;3.80;;;2.50;87.90;;;;;;5057739;28;20317;-44
2021/12/20 04:17:16;;;;;;;6.55;3.90;;;2.50;87.60;;;;;;5057787;28;20407;-45
2021/12/20 04:19:42;;;;;;;8.30;3.80;;;2.50;87.40;;;;;;5057618;28;20397;-44
2021/12/20 04:22:08;;;;;;;6.13;3.55;;;2.50;87.50;;;;;;5057615;28;20040;-41
2021/12/20 04:24:34;;;;;;;6.38;3.40;;;2.50;87.50;;;;;;5057226;28;20081;-39
2021/12/20 04:27:00;;;;;;;6.80;4.50;;;2.50;87.20;;;;;;5057756;28;20064;-40
2021/12/20 04:29:27;;;;;;;5.68;3.40;;;2.50;87.20;;;;;;5057366;28;20029;-44
2021/12/20 04:31:53;;;;;;;4.38;3.08;;;2.50;87.20;;;;;;5057213;28;20040;-39
2021/12/20 04:34:19;;;;;;;5.75;3.72;;;2.50;87.10;;;;;;5057197;28;20032;-39
2021/12/20 04:36:45;;;;;;;6.55;3.00;;;2.50;87.10;;;;;;5057387;28;20423;-45
2021/12/20 04:39:15;;;;;;;4.10;3.00;;;2.50;87.60;;;;;;5056944;28;20110;-46
2021/12/20 04:41:41;;;;;;;4.20;2.70;;;2.50;86.80;;;;;;5057162;28;20033;-39
2021/12/20 04:44:07;;;;;;;3.67;2.75;;;2.50;86.80;;;;;;5057226;28;20278;-39
2021/12/20 04:46:33;;;;;;;3.42;2.53;;;2.50;86.60;;;;;;5057306;28;20029;-39
2021/12/20 04:48:58;;;;;;;4.72;2.45;;;2.50;86.70;;;;;;5056934;28;20282;-39
2021/12/20 04:51:24;;;;;;;2.53;2.15;;;2.50;86.70;;;;;;5056937;28;20035;-40
2021/12/20 04:53:50;;;;;;;3.75;2.85;;;2.50;86.60;;;;;;5056562;28;20056;-43
2021/12/20 04:56:15;;;;;;;4.47;2.72;;;2.50;86.60;;;;;;5056968;28;20036;-39
2021/12/20 04:58:42;;;;;;;4.60;2.30;;;2.50;86.60;;;;;;5056778;28;20415;-39
2021/12/20 05:01:07;;;;;;;3.80;2.72;;;2.60;86.40;;;;;;5056962;28;20029;-44
2021/12/20 05:03:33;;;;;;;7.47;2.78;;;2.50;86.40;;;;;;5056976;28;20055;-39
2021/12/20 05:05:59;;;;;;;5.50;2.58;;;2.50;86.40;;;;;;5056114;28;20080;-45
2021/12/20 05:08:33;;;;;;;4.30;2.25;;;2.50;86.30;;;;;;5056392;28;20040;-39
2021/12/20 05:10:59;;;;;;;3.08;2.03;;;2.60;86.40;;;;;;5056265;28;20112;-46
2021/12/20 05:13:24;;;;;;;4.55;2.50;;;2.60;86.20;;;;;;5056390;28;20057;-39
2021/12/20 05:15:50;;;;;;;4.30;2.22;;;2.60;86.10;;;;;;5056571;28;20045;-44
2021/12/20 05:18:16;;;;;;;3.85;2.30;;;2.60;85.90;;;;;;5056414;28;20032;-45
2021/12/20 05:20:41;;;;;;;3.92;2.03;;;2.60;85.90;;;;;;5056055;28;20448;-44
2021/12/20 05:23:08;;;;;;;3.85;2.33;;;2.50;85.70;;;;;;5056309;28;20037;-38
2021/12/20 05:25:35;;;;;;;3.90;1.83;;;2.50;85.70;;;;;;5056517;28;20033;-43
2021/12/20 05:28:00;;;;;;;2.90;1.90;;;2.60;85.70;;;;;;5055990;28;20036;-40
2021/12/20 05:30:26;;;;;;;5.55;2.25;;;2.60;85.60;;;;;;5055895;28;20029;-44
2021/12/20 05:32:53;;;;;;;5.78;2.50;;;2.60;85.60;;;;;;5056237;28;20039;-39
2021/12/20 05:35:20;;;;;;;6.97;2.50;;;2.60;85.50;;;;;;5056069;28;20029;-39
2021/12/20 05:37:46;;;;;;;3.60;2.08;;;2.60;85.40;;;;;;5056160;28;20029;-44
2021/12/20 05:40:13;;;;;;;4.57;2.30;;;2.60;85.50;;;;;;5055725;28;20285;-46
2021/12/20 05:42:39;;;;;;;4.18;2.40;;;2.60;85.40;;;;;;5049177;28;20064;-43
2021/12/20 05:45:05;;;;;;;6.90;3.03;;;2.60;85.50;;;;;;5038295;28;20052;-39
2021/12/20 05:47:31;;;;;;;4.20;2.53;;;2.60;85.50;;;;;;5035904;28;20030;-42
2021/12/20 05:49:57;;;;;;;6.53;2.67;;;2.60;85.40;;;;;;5035767;28;20053;-44
2021/12/20 05:52:23;;;;;;;3.05;2.03;;;2.60;85.30;;;;;;5035984;28;20029;-45
2021/12/20 05:54:49;;;;;;;8.30;2.60;;;2.60;85.00;;;;;;5035181;28;20396;-39
2021/12/20 05:57:15;;;;;;;7.63;2.38;;;2.60;85.00;;;;;;5035793;28;20030;-44
2021/12/20 05:59:41;;;;;;;4.13;2.63;;;2.60;85.10;;;;;;5035717;28;20030;-39
2021/12/20 06:02:06;;;;;;;3.92;2.72;;;2.60;84.90;;;;;;5035609;28;20080;-40
2021/12/20 06:04:32;;;;;;;4.18;3.30;;;2.60;84.90;;;;;;5035320;28;20038;-44
2021/12/20 06:06:58;;;;;;;4.88;2.58;;;2.60;85.00;;;;;;5035540;28;20032;-45
2021/12/20 06:09:24;;;;;;;4.30;2.97;;;2.60;84.90;;;;;;5034867;28;20116;-45
2021/12/20 06:11:50;;;;;;;6.65;3.65;;;2.60;85.10;;;;;;5037453;28;20112;-40
2021/12/20 06:14:16;;;;;;;3.53;2.30;;;2.60;85.30;;;;;;5043924;28;20340;-46
2021/12/20 06:16:42;;;;;;;3.33;2.40;;;2.60;85.10;;;;;;5035780;28;20029;-39
2021/12/20 06:19:08;;;;;;;8.65;4.15;;;2.70;85.00;;;;;;5034876;28;20056;-44
2021/12/20 06:21:34;;;;;;;12.45;5.07;;;2.70;84.80;;;;;;5035841;28;20092;-39
2021/12/20 06:24:00;;;;;;;4.88;2.95;;;2.70;84.50;;;;;;5034967;28;20025;-47
2021/12/20 06:26:26;;;;;;;9.02;4.55;;;2.70;85.00;;;;;;5035546;28;20021;-40
2021/12/20 06:28:53;;;;;;;2.78;1.85;;;2.70;84.50;;;;;;5035297;28;20021;-39
2021/12/20 06:31:19;;;;;;;6.38;2.83;;;2.80;84.40;;;;;;5035271;28;20030;-39
2021/12/20 06:33:45;;;;;;;3.55;2.20;;;2.80;84.20;;;;;;5035181;28;20049;-39
2021/12/20 06:36:11;;;;;;;3.97;2.10;;;2.80;84.00;;;;;;5035689;28;20087;-40
2021/12/20 06:38:43;;;;;;;3.25;2.28;;;2.80;83.90;;;;;;5035052;28;20033;-39
2021/12/20 06:41:09;;;;;;;4.15;2.10;;;2.80;83.70;;;;;;5035360;28;20034;-44
2021/12/20 06:43:35;;;;;;;5.22;1.88;;;2.80;83.80;;;;;;5034705;28;20440;-44
2021/12/20 06:46:01;;;;;;;3.72;2.10;;;2.80;83.50;;;;;;5034656;28;20026;-45
2021/12/20 06:48:27;;;;;;;3.15;2.00;;;2.80;83.40;;;;;;5034726;28;20029;-44
2021/12/20 06:50:53;;;;;;;3.83;2.20;;;2.80;83.20;;;;;;5034856;28;20053;-44
2021/12/20 06:53:18;;;;;;;5.95;2.33;;;2.80;83.00;;;;;;5041888;28;20030;-39
2021/12/20 06:55:44;;;;;;;4.32;1.90;;;2.80;83.00;;;;;;5042998;28;20078;-39
2021/12/20 06:58:10;;;;;;;4.90;2.72;;;2.80;82.90;;;;;;5035457;28;20030;-40
2021/12/20 07:00:36;;;;;;;4.18;2.58;;;2.80;83.00;;;;;;5035043;28;20037;-39
2021/12/20 07:03:01;;;;;;;4.18;2.05;;;2.90;83.00;;;;;;5037432;28;20048;-45
2021/12/20 07:05:27;;;;;;;3.35;2.00;;;2.90;83.00;;;;;;5037378;28;20068;-39
2021/12/20 07:07:53;;;;;;;3.60;1.98;;;2.90;82.90;;;;;;5040847;28;20032;-40
2021/12/20 07:10:19;;;;;;;2.30;1.90;;;3.00;82.90;;;;;;5044238;28;20032;-39
2021/12/20 07:12:45;;;;;;;3.65;2.05;;;3.00;82.20;;;;;;5037437;28;20381;-45
2021/12/20 07:15:11;;;;;;;8.43;2.70;;;3.00;82.30;;;;;;5043555;28;20064;-47
2021/12/20 07:17:37;;;;;;;4.93;1.75;;;3.00;82.30;;;;;;5044751;28;20110;-44
2021/12/20 07:20:05;;;;;;;4.32;1.80;;;3.10;82.50;;;;;;5045277;28;20029;-45
2021/12/20 07:22:30;;;;;;;5.50;2.22;;;3.10;82.30;;;;;;5046570;28;20437;-44
2021/12/20 07:24:56;;;;;;;3.97;1.85;;;3.10;82.00;;;;;;5054485;28;20028;-44
2021/12/20 07:27:21;;;;;;;3.47;2.20;;;3.10;82.00;;;;;;5054823;28;20025;-43
2021/12/20 07:29:47;;;;;;;4.60;2.15;;;3.20;81.90;;;;;;5049459;28;20029;-39
2021/12/20 07:32:13;;;;;;;8.77;3.53;;;3.20;81.80;;;;;;5057848;28;20328;-40
2021/12/20 07:34:39;;;;;;;2.72;1.52;;;3.30;81.50;;;;;;5047179;28;20028;-39
2021/12/20 07:37:06;;;;;;;3.55;2.03;;;3.30;81.50;;;;;;5054851;28;20113;-39
2021/12/20 07:39:33;;;;;;;3.50;1.90;;;3.30;81.40;;;;;;5058101;28;20091;-39
2021/12/20 07:41:59;;;;;;;1.95;1.30;;;3.40;81.10;;;;;;5058528;28;20083;-39
2021/12/20 07:44:25;;;;;;;3.65;2.30;;;3.40;80.60;;;;;;5057833;28;20025;-44
2021/12/20 07:46:51;;;;;;;3.92;1.90;;;3.40;80.10;;;;;;5055316;28;20309;-39
2021/12/20 07:49:17;;;;;;;2.05;1.52;;;3.40;80.20;;;;;;5046349;28;20029;-39
2021/12/20 07:51:43;;;;;;;4.30;2.17;;;3.40;79.90;;;;;;5046883;28;20081;-44
2021/12/20 07:54:09;;;;;;;3.85;1.83;;;3.40;79.80;;;;;;5044970;28;20041;-47
2021/12/20 07:56:35;;;;;;;2.88;1.98;;;3.40;79.80;;;;;;5047669;28;20048;-46
2021/12/20 07:59:01;;;;;;;3.22;1.90;;;3.40;79.80;;;;;;5045947;28;20037;-39
2021/12/20 08:01:27;;;;;;;3.85;1.90;;;3.40;79.60;;;;;;5045766;28;20033;-39
2021/12/20 08:03:53;;;;;;;4.82;2.42;;;3.40;79.50;;;;;;5051382;28;20358;-47
2021/12/20 08:06:19;;;;;;;3.70;2.05;;;3.40;79.50;;;;;;5047047;28;20034;-45
2021/12/20 08:08:45;;;;;;;2.80;1.90;;;3.40;79.20;;;;;;5044494;28;20032;-44
2021/12/20 08:11:11;;;;;;;3.13;1.90;;;3.40;79.20;;;;;;5042093;28;20021;-39
2021/12/20 08:13:44;;;;;;;3.08;1.70;;;3.50;79.10;;;;;;5037059;28;20130;-40
2021/12/20 08:16:13;;;;;;;2.72;1.63;;;3.50;79.00;;;;;;5037549;28;20033;-38
2021/12/20 08:18:44;;;;;;;4.00;2.20;;;3.50;79.00;;;;;;5037044;28;20302;-38
2021/12/20 08:21:10;;;;;;;2.78;2.00;;;3.60;79.00;;;;;;5037721;28;20321;-43
2021/12/20 08:23:37;;;;;;;6.25;1.80;;;3.60;79.00;;;;;;5037116;28;20112;-43
2021/12/20 08:26:04;;;;;;;5.07;1.63;;;3.60;78.60;;;;;;5037196;28;20516;-39
2021/12/20 08:28:30;;;;;;;6.70;2.28;;;3.60;78.40;;;;;;5036996;28;20026;-43
2021/12/20 08:30:56;;;;;;;3.50;2.08;;;3.70;78.30;;;;;;5036946;28;20121;-44
2021/12/20 08:33:22;;;;;;;3.85;2.53;;;3.70;78.10;;;;;;5036940;28;20081;-39
2021/12/20 08:35:49;;;;;;;4.13;2.40;;;3.70;77.60;;;;;;5037197;28;20414;-42
2021/12/20 08:38:16;;;;;;;5.88;2.30;;;3.70;77.50;;;;;;5037262;28;20052;-39
2021/12/20 08:40:42;;;;;;;2.75;2.08;;;3.70;77.80;;;;;;5036065;28;20100;-39
2021/12/20 08:43:08;;;;;;;3.45;2.17;;;3.70;77.40;;;;;;5037218;28;20029;-40
2021/12/20 08:45:34;;;;;;;3.55;2.47;;;3.70;77.30;;;;;;5036897;28;20030;-39
2021/12/20 08:48:01;;;;;;;6.15;2.42;;;3.70;77.10;;;;;;5036714;28;20033;-40
2021/12/20 08:50:26;;;;;;;3.80;2.10;;;3.70;76.90;;;;;;5036789;28;20060;-39
2021/12/20 08:52:53;;;;;;;4.10;2.67;;;3.80;77.00;;;;;;5036635;28;20347;-40
2021/12/20 08:55:20;;;;;;;5.40;2.35;;;3.80;77.00;;;;;;5036009;28;20128;-46
2021/12/20 08:57:46;;;;;;;5.00;2.60;;;3.80;76.80;;;;;;5036827;28;20034;-39
2021/12/20 09:00:18;;;;;;;3.20;2.28;;;3.80;76.40;;;;;;5036517;28;20045;-39
2021/12/20 09:02:43;;;;;;;5.07;2.50;;;3.90;76.00;;;;;;5036518;28;20029;-39
2021/12/20 09:05:09;;;;;;;3.47;2.05;;;3.90;76.00;;;;;;5036047;28;20077;-45
2021/12/20 09:07:36;;;;;;;5.18;2.60;;;3.90;75.60;;;;;;5036409;28;20027;-40
2021/12/20 09:10:03;;;;;;;5.38;3.08;;;3.90;75.20;;;;;;5035943;28;20382;-38
2021/12/20 09:12:28;;;;;;;4.95;2.58;;;3.90;74.90;;;;;;5036290;28;20143;-40
2021/12/20 09:14:54;;;;;;;3.53;2.40;;;4.00;74.70;;;;;;5036318;28;20124;-38
2021/12/20 09:17:20;;;;;;;4.13;2.90;;;4.00;74.60;;;;;;5036121;28;20030;-39
2021/12/20 09:19:45;;;;;;;5.20;2.65;;;4.00;74.00;;;;;;5034992;28;20033;-39
2021/12/20 09:22:11;;;;;;;3.80;2.42;;;4.00;73.50;;;;;;5036097;28;20315;-43
2021/12/20 09:24:39;;;;;;;4.07;2.63;;;4.00;73.20;;;;;;5035905;28;20356;-43
2021/12/20 09:27:05;;;;;;;4.63;2.80;;;4.10;73.40;;;;;;5036143;28;20025;-39
2021/12/20 09:29:31;;;;;;;5.10;2.90;;;4.10;73.10;;;;;;5040109;28;20378;-39
2021/12/20 09:31:57;;;;;;;4.70;2.60;;;4.10;73.10;;;;;;5055115;28;20033;-42
2021/12/20 09:34:23;;;;;;;4.53;2.40;;;4.10;72.70;;;;;;5048406;28;20034;-43
2021/12/20 09:36:49;;;;;;;5.45;2.50;;;4.10;73.00;;;;;;5042371;28;20431;-38
2021/12/20 09:39:16;;;;;;;4.50;2.30;;;4.10;73.00;;;;;;5035513;28;20111;-38
2021/12/20 09:44:10;;;;;;;3.95;3.13;;;4.10;72.90;;;;;;5035366;28;20109;-39
2021/12/20 09:46:36;;;;;;;6.00;2.83;;;4.10;73.00;;;;;;5036189;28;20104;-38
2021/12/20 09:49:03;;;;;;;5.30;2.40;;;4.10;73.20;;;;;;5035905;28;20449;-43
2021/12/20 09:51:29;;;;;;;4.95;2.80;;;4.10;73.00;;;;;;5036140;28;20045;-39
2021/12/20 09:53:55;;;;;;;5.50;3.30;;;4.20;73.10;;;;;;5034423;28;20745;-39
2021/12/20 09:56:24;;;;;;;2.55;2.00;;;4.20;72.60;;;;;;5035718;28;20033;-48
2021/12/20 09:58:52;;;;;;;2.83;2.08;;;4.20;72.50;;;;;;5035511;28;20037;-39
2021/12/20 10:01:20;;;;;;;4.15;2.65;;;4.20;72.40;;;;;;5035782;28;20030;-39
2021/12/20 10:03:46;;;;;;;2.97;2.13;;;4.10;72.60;;;;;;5035154;28;20026;-47
2021/12/20 10:06:13;;;;;;;5.60;3.13;;;4.10;73.10;;;;;;5035809;28;20065;-44
2021/12/20 10:08:48;;;;;;;2.65;1.98;;;4.10;73.00;;;;;;5035211;28;20033;-39
2021/12/20 10:11:24;;;;;;;6.43;3.45;;;4.10;73.00;;;;;;5035378;28;20030;-52
2021/12/20 10:14:00;;;;;;;3.78;2.40;;;4.10;73.00;;;;;;5034850;28;20037;-43
2021/12/20 10:16:26;;;;;;;2.63;2.05;;;4.10;73.10;;;;;;5035456;28;20352;-43
2021/12/20 10:18:52;;;;;;;3.38;2.10;;;4.10;73.20;;;;;;5034969;28;20026;-43
2021/12/20 10:21:18;;;;;;;7.15;2.88;;;4.10;73.00;;;;;;5035659;28;20022;-39
2021/12/20 10:23:50;;;;;;;2.65;2.10;;;4.20;73.10;;;;;;5035238;28;20444;-39
2021/12/20 10:26:19;;;;;;;2.20;1.98;;;4.20;73.00;;;;;;5035678;28;20030;-45
2021/12/20 10:28:46;;;;;;;2.15;1.50;;;4.20;73.10;;;;;;5035321;28;20091;-43
2021/12/20 10:31:17;;;;;;;2.50;1.90;;;4.20;73.00;;;;;;5035413;28;20037;-43
2021/12/20 10:33:53;;;;;;;3.85;2.25;;;4.20;72.80;;;;;;5035142;28;20037;-43
2021/12/20 10:36:19;;;;;;;10.90;5.38;;;4.20;73.00;;;;;;5035465;28;20029;-39
2021/12/20 10:38:49;;;;;;;4.93;2.50;;;4.20;73.00;;;;;;5034895;28;20310;-41
2021/12/20 10:41:24;;;;;;;11.02;4.10;;;4.10;72.90;;;;;;5035187;28;20264;-39
2021/12/20 10:43:54;;;;;;;7.45;4.40;;;4.10;73.10;;;;;;5034966;28;20295;-44
2021/12/20 10:46:19;;;;;;;3.67;2.57;;;4.10;73.50;;;;;;5035485;28;20018;-44
2021/12/20 10:48:48;;;;;;;6.10;2.70;;;4.20;73.70;;;;;;5035016;28;20424;-45
2021/12/20 10:51:25;;;;;;;7.40;2.40;;;4.20;73.50;;;;;;5035053;28;20028;-44
2021/12/20 10:53:59;;;;;;;3.80;2.15;;;4.20;73.20;;;;;;5033528;28;20037;-45
2021/12/20 10:56:26;;;;;;;3.88;2.05;;;4.20;73.40;;;;;;5035334;28;20299;-44
2021/12/20 10:58:52;;;;;;;6.63;2.85;;;4.20;73.40;;;;;;5034747;28;20369;-39
2021/12/20 11:02:06;;;;;;;3.85;2.60;;;4.30;73.40;;;;;;5035226;28;20024;-39
2021/12/20 11:04:24;;;;;;;5.25;2.38;;;4.30;73.30;;;;;;5036217;28;20291;-39
2021/12/20 11:09:26;;;;;;;4.45;2.45;;;4.40;73.20;;;;;;5038608;28;20069;-43
2021/12/20 11:12:01;;;;;;;3.35;2.10;;;4.30;73.50;;;;;;5038952;28;20037;-44
2021/12/20 11:14:39;;;;;;;2.47;1.83;;;4.30;73.80;;;;;;5038506;28;20090;-47
2021/12/20 11:17:07;;;;;;;1.45;1.30;;;4.20;73.70;;;;;;5038886;28;20033;-39
2021/12/20 11:19:40;;;;;;;2.08;1.30;;;4.00;73.70;;;;;;5038165;28;20037;-44
2021/12/20 11:22:29;;;;;;;4.82;1.77;;;4.00;74.10;;;;;;5038730;28;20421;-39
2021/12/20 11:24:55;;;;;;;4.70;2.38;;;3.80;74.50;;;;;;5038521;28;20116;-39
2021/12/20 11:27:30;;;;;;;1.50;1.40;;;3.80;75.00;;;;;;5038235;28;20069;-39
2021/12/20 11:29:57;;;;;;;1.40;1.15;;;3.70;75.30;;;;;;5038459;28;20045;-44
2021/12/20 11:32:24;;;;;;;2.10;1.70;;;3.70;75.60;;;;;;5038663;28;20032;-39
2021/12/20 11:34:50;;;;;;;2.90;1.90;;;3.70;75.60;;;;;;5038261;28;20039;-44
2021/12/20 11:37:20;;;;;;;3.63;2.10;;;3.70;75.50;;;;;;5038655;28;20032;-45
2021/12/20 11:39:47;;;;;;;4.70;2.67;;;3.60;75.50;;;;;;5037902;28;20042;-46
2021/12/20 11:42:13;;;;;;;3.90;2.22;;;3.60;75.70;;;;;;5038411;28;20049;-39
2021/12/20 11:44:40;;;;;;;4.88;2.67;;;3.50;75.70;;;;;;5037996;28;20029;-39
2021/12/20 11:47:15;;;;;;;5.88;2.97;;;3.50;76.00;;;;;;5037981;28;20026;-39
2021/12/20 11:49:41;;;;;;;5.65;3.03;;;3.50;76.10;;;;;;5038036;28;20029;-39
2021/12/20 11:52:18;;;;;;;9.05;2.70;;;3.40;76.30;;;;;;5037827;28;20160;-39
2021/12/20 11:54:52;;;;;;;4.57;2.63;;;3.40;76.40;;;;;;5037542;28;20045;-44
2021/12/20 11:57:42;;;;;;;8.60;2.85;;;3.30;76.60;;;;;;5038016;28;20110;-39
2021/12/20 12:00:35;;;;;;;14.32;5.82;;;3.20;76.70;;;;;;5037707;28;20033;-48
2021/12/20 12:03:15;;;;;;;15.93;6.43;;;3.20;77.00;;;;;;5037926;28;20192;-45
2021/12/20 12:06:01;;;;;;;8.18;3.95;;;3.10;77.30;;;;;;5037941;28;20022;-39
2021/12/20 12:08:59;;;;;;;10.02;3.17;;;3.10;77.80;;;;;;5037940;28;20325;-43
2021/12/20 12:11:25;;;;;;;6.40;3.30;;;3.10;78.10;;;;;;5037303;28;20033;-39
2021/12/20 12:16:46;;;;;;;8.50;4.13;;;3.10;78.30;;;;;;5037078;28;20091;-39
2021/12/20 12:19:12;;;;;;;10.57;6.03;;;3.10;78.50;;;;;;5037473;28;20076;-39
2021/12/20 12:21:40;;;;;;;8.95;4.88;;;3.10;79.20;;;;;;5037685;28;20036;-46
2021/12/20 12:24:13;;;;;;;7.63;3.78;;;3.10;78.60;;;;;;5037393;28;20475;-45
2021/12/20 12:26:42;;;;;;;11.80;5.00;;;3.20;78.50;;;;;;5037454;28;20028;-48
2021/12/20 12:29:25;;;;;;;13.02;5.53;;;3.20;78.40;;;;;;5037282;28;20049;-39
2021/12/20 12:31:57;;;;;;;10.63;4.80;;;3.30;78.40;;;;;;5037539;28;20029;-44
2021/12/20 12:34:25;;;;;;;7.57;4.45;;;3.30;78.20;;;;;;5037226;28;20037;-47
2021/12/20 12:37:10;;;;;;;10.30;4.70;;;3.30;78.10;;;;;;5037126;28;20108;-46
2021/12/20 12:39:36;;;;;;;9.05;4.40;;;3.30;78.20;;;;;;5036929;28;20048;-39
2021/12/20 12:42:02;;;;;;;9.90;4.18;;;3.30;78.20;;;;;;5036973;28;20029;-44
2021/12/20 12:44:28;;;;;;;6.72;3.53;;;3.40;78.10;;;;;;5036863;28;20036;-39
2021/12/20 12:47:35;;;;;;;7.32;4.05;;;3.40;78.20;;;;;;5037259;28;20380;-45
2021/12/20 12:50:01;;;;;;;9.15;4.35;;;3.40;77.90;;;;;;5036543;28;20049;-39
2021/12/20 12:52:26;;;;;;;19.15;6.07;;;3.40;78.00;;;;;;5036981;28;20087;-47
2021/12/20 12:54:52;;;;;;;10.95;5.43;;;3.40;78.00;;;;;;5036267;28;20049;-46
2021/12/20 12:57:18;;;;;;;13.73;5.75;;;3.40;78.00;;;;;;5036988;28;20026;-45
2021/12/20 12:59:56;;;;;;;12.43;5.60;;;3.40;77.90;;;;;;5036818;28;20061;-41
2021/12/20 13:02:27;;;;;;;10.10;5.03;;;3.40;77.90;;;;;;5036850;28;20098;-44
2021/12/20 13:04:55;;;;;;;8.18;4.85;;;3.40;77.90;;;;;;5036541;28;20026;-44
2021/12/20 13:07:28;;;;;;;8.82;4.53;;;3.40;77.80;;;;;;5036574;28;20075;-39
2021/12/20 13:09:58;;;;;;;13.23;5.85;;;3.40;77.80;;;;;;5036194;28;20426;-48
2021/12/20 13:17:32;;;;;;;3.35;2.70;;;3.30;77.90;;;;;;5036598;28;20037;-45
2021/12/20 13:22:58;;;;;;;4.97;3.60;;;3.30;77.90;;;;;;5036632;28;20095;-45
2021/12/20 13:25:37;;;;;;;5.82;3.30;;;3.30;77.90;;;;;;5036300;28;20371;-45
2021/12/20 13:28:05;;;;;;;10.48;4.45;;;3.30;77.90;;;;;;5036219;28;20022;-39
2021/12/20 13:30:31;;;;;;;5.97;3.45;;;3.30;78.00;;;;;;5036003;28;20105;-39
2021/12/20 13:32:57;;;;;;;6.55;4.00;;;3.30;78.10;;;;;;5036102;28;20037;-45